sensor_id;sensor_type;location;lat;lon;timestamp;pressure;altitude;pressure_sealevel;temperature;humidity
77662;BME280;69666;52.136;5.424;2023-04-29T00:01:00;101636.34;;;10.45;96.97
77662;BME280;69666;52.136;5.424;2023-04-29T00:03:27;101639.88;;;10.46;97.23
77662;BME280;69666;52.136;5.424;2023-04-29T00:05:55;101644.34;;;10.45;97.23
77662;BME280;69666;52.136;5.424;2023-04-29T00:08:23;101639.00;;;10.45;97.31
77662;BME280;69666;52.136;5.424;2023-04-29T00:10:50;101641.66;;;10.45;97.32
77662;BME280;69666;52.136;5.424;2023-04-29T00:13:16;101649.63;;;10.47;96.93
77662;BME280;69666;52.136;5.424;2023-04-29T00:15:43;101640.78;;;10.45;96.78
77662;BME280;69666;52.136;5.424;2023-04-29T00:18:10;101642.56;;;10.44;97.02
77662;BME280;69666;52.136;5.424;2023-04-29T00:20:36;101639.97;;;10.41;96.66
77662;BME280;69666;52.136;5.424;2023-04-29T00:23:04;101643.50;;;10.42;96.71
77662;BME280;69666;52.136;5.424;2023-04-29T00:25:31;101647.09;;;10.39;97.34
77662;BME280;69666;52.136;5.424;2023-04-29T00:27:57;101644.41;;;10.41;97.15
77662;BME280;69666;52.136;5.424;2023-04-29T00:30:27;101658.63;;;10.40;96.84
77662;BME280;69666;52.136;5.424;2023-04-29T00:32:54;101660.34;;;10.42;97.35
77662;BME280;69666;52.136;5.424;2023-04-29T00:35:21;101658.63;;;10.40;96.72
77662;BME280;69666;52.136;5.424;2023-04-29T00:37:47;101661.28;;;10.40;97.24
77662;BME280;69666;52.136;5.424;2023-04-29T00:40:14;101663.94;;;10.40;97.22
77662;BME280;69666;52.136;5.424;2023-04-29T00:42:41;101667.47;;;10.40;97.08
77662;BME280;69666;52.136;5.424;2023-04-29T00:45:09;101666.66;;;10.38;96.72
77662;BME280;69666;52.136;5.424;2023-04-29T00:47:38;101671.03;;;10.39;97.01
77662;BME280;69666;52.136;5.424;2023-04-29T00:50:06;101670.16;;;10.39;97.43
77662;BME280;69666;52.136;5.424;2023-04-29T00:52:36;101670.13;;;10.40;96.78
77662;BME280;69666;52.136;5.424;2023-04-29T00:55:05;101676.34;;;10.41;97.00
77662;BME280;69666;52.136;5.424;2023-04-29T00:57:33;101674.56;;;10.41;97.80
77662;BME280;69666;52.136;5.424;2023-04-29T01:00:00;101672.81;;;10.40;97.11
77662;BME280;69666;52.136;5.424;2023-04-29T01:02:27;101681.66;;;10.41;96.54
77662;BME280;69666;52.136;5.424;2023-04-29T01:04:54;101687.00;;;10.39;96.80
77662;BME280;69666;52.136;5.424;2023-04-29T01:07:55;101684.34;;;10.39;97.11
77662;BME280;69666;52.136;5.424;2023-04-29T01:13:29;101682.69;;;10.34;97.11
77662;BME280;69666;52.136;5.424;2023-04-29T01:16:12;101692.50;;;10.32;96.28
77662;BME280;69666;52.136;5.424;2023-04-29T01:18:48;101697.84;;;10.30;97.33
77662;BME280;69666;52.136;5.424;2023-04-29T01:21:15;101700.50;;;10.30;97.88
77662;BME280;69666;52.136;5.424;2023-04-29T01:23:43;101713.00;;;10.27;97.37
77662;BME280;69666;52.136;5.424;2023-04-29T01:26:11;101705.91;;;10.26;97.13
77662;BME280;69666;52.136;5.424;2023-04-29T01:41:41;101717.50;;;10.21;97.27
77662;BME280;69666;52.136;5.424;2023-04-29T01:44:14;101709.56;;;10.20;96.94
77662;BME280;69666;52.136;5.424;2023-04-29T01:46:43;101712.22;;;10.20;97.04
77662;BME280;69666;52.136;5.424;2023-04-29T01:49:18;101721.06;;;10.20;97.31
77662;BME280;69666;52.136;5.424;2023-04-29T01:51:45;101723.72;;;10.22;97.16
77662;BME280;69666;52.136;5.424;2023-04-29T01:54:11;101722.81;;;10.21;96.79
77662;BME280;69666;52.136;5.424;2023-04-29T01:56:38;101721.03;;;10.22;97.00
77662;BME280;69666;52.136;5.424;2023-04-29T01:59:05;101726.38;;;10.22;97.51
77662;BME280;69666;52.136;5.424;2023-04-29T02:01:32;101721.03;;;10.22;97.74
77662;BME280;69666;52.136;5.424;2023-04-29T02:03:59;101729.91;;;10.22;97.18
77662;BME280;69666;52.136;5.424;2023-04-29T02:06:26;101724.59;;;10.21;97.33
77662;BME280;69666;52.136;5.424;2023-04-29T02:08:53;101731.69;;;10.22;97.52
77662;BME280;69666;52.136;5.424;2023-04-29T02:11:20;101740.53;;;10.22;97.43
77662;BME280;69666;52.136;5.424;2023-04-29T02:13:46;101734.34;;;10.22;97.54
77662;BME280;69666;52.136;5.424;2023-04-29T02:16:14;101741.44;;;10.21;97.06
77662;BME280;69666;52.136;5.424;2023-04-29T02:18:41;101737.84;;;10.24;97.26
77662;BME280;69666;52.136;5.424;2023-04-29T02:21:08;101741.44;;;10.21;97.22
77662;BME280;69666;52.136;5.424;2023-04-29T02:23:35;101750.31;;;10.22;97.31
77662;BME280;69666;52.136;5.424;2023-04-29T02:26:02;101754.72;;;10.23;97.45
77662;BME280;69666;52.136;5.424;2023-04-29T02:28:34;101745.84;;;10.22;97.49
77662;BME280;69666;52.136;5.424;2023-04-29T02:31:01;101760.91;;;10.23;97.07
77662;BME280;69666;52.136;5.424;2023-04-29T02:33:27;101750.28;;;10.23;97.13
77662;BME280;69666;52.136;5.424;2023-04-29T02:35:54;101764.47;;;10.24;97.06
77662;BME280;69666;52.136;5.424;2023-04-29T02:38:21;101766.25;;;10.23;96.65
77662;BME280;69666;52.136;5.424;2023-04-29T02:40:47;101760.91;;;10.23;96.94
77662;BME280;69666;52.136;5.424;2023-04-29T02:43:14;101767.13;;;10.22;97.25
77662;BME280;69666;52.136;5.424;2023-04-29T02:45:40;101772.47;;;10.22;97.05
77662;BME280;69666;52.136;5.424;2023-04-29T02:48:07;101778.66;;;10.23;96.78
77662;BME280;69666;52.136;5.424;2023-04-29T02:50:34;101779.56;;;10.22;97.22
77662;BME280;69666;52.136;5.424;2023-04-29T02:53:00;101783.09;;;10.22;96.50
77662;BME280;69666;52.136;5.424;2023-04-29T02:55:27;101785.78;;;10.21;97.05
77662;BME280;69666;52.136;5.424;2023-04-29T02:57:54;101785.78;;;10.21;96.79
77662;BME280;69666;52.136;5.424;2023-04-29T03:00:20;101790.19;;;10.22;97.16
77662;BME280;69666;52.136;5.424;2023-04-29T03:02:47;101784.00;;;10.21;97.12
77662;BME280;69666;52.136;5.424;2023-04-29T03:05:14;101784.91;;;10.20;96.55
77662;BME280;69666;52.136;5.424;2023-04-29T03:07:40;101796.41;;;10.22;96.70
77662;BME280;69666;52.136;5.424;2023-04-29T03:10:08;101800.84;;;10.22;97.40
77662;BME280;69666;52.136;5.424;2023-04-29T03:12:34;101794.66;;;10.20;97.10
77662;BME280;69666;52.136;5.424;2023-04-29T03:15:01;101810.63;;;10.20;96.94
77662;BME280;69666;52.136;5.424;2023-04-29T03:17:28;101807.06;;;10.19;96.67
77662;BME280;69666;52.136;5.424;2023-04-29T03:19:54;101811.50;;;10.17;97.01
77662;BME280;69666;52.136;5.424;2023-04-29T03:22:21;101816.88;;;10.16;96.50
77662;BME280;69666;52.136;5.424;2023-04-29T03:24:47;101817.75;;;10.16;97.12
77662;BME280;69666;52.136;5.424;2023-04-29T03:27:14;101816.88;;;10.16;96.98
77662;BME280;69666;52.136;5.424;2023-04-29T03:29:41;101826.66;;;10.14;96.61
77662;BME280;69666;52.136;5.424;2023-04-29T03:32:07;101822.22;;;10.14;96.55
77662;BME280;69666;52.136;5.424;2023-04-29T03:34:34;101815.13;;;10.13;96.57
77662;BME280;69666;52.136;5.424;2023-04-29T03:37:01;101814.25;;;10.13;96.55
77662;BME280;69666;52.136;5.424;2023-04-29T03:39:28;101812.50;;;10.12;96.53
77662;BME280;69666;52.136;5.424;2023-04-29T03:41:58;101824.03;;;10.11;95.62
77662;BME280;69666;52.136;5.424;2023-04-29T03:44:25;101822.31;;;10.08;95.72
77662;BME280;69666;52.136;5.424;2023-04-29T03:46:52;101827.63;;;10.07;96.20
77662;BME280;69666;52.136;5.424;2023-04-29T03:49:18;101826.75;;;10.06;96.32
77662;BME280;69666;52.136;5.424;2023-04-29T03:51:45;101833.03;;;10.04;95.76
77662;BME280;69666;52.136;5.424;2023-04-29T03:54:12;101833.03;;;10.04;95.43
77662;BME280;69666;52.136;5.424;2023-04-29T03:56:39;101839.22;;;10.04;95.75
77662;BME280;69666;52.136;5.424;2023-04-29T03:59:06;101834.81;;;10.03;95.33
77662;BME280;69666;52.136;5.424;2023-04-29T04:01:33;101841.94;;;10.01;94.47
77662;BME280;69666;52.136;5.424;2023-04-29T04:03:59;101843.69;;;10.01;95.48
77662;BME280;69666;52.136;5.424;2023-04-29T04:06:26;101844.59;;;10.00;95.21
77662;BME280;69666;52.136;5.424;2023-04-29T04:08:53;101852.59;;;9.98;94.00
77662;BME280;69666;52.136;5.424;2023-04-29T04:11:19;101846.41;;;9.98;94.29
77662;BME280;69666;52.136;5.424;2023-04-29T04:13:46;101854.41;;;9.96;94.70
77662;BME280;69666;52.136;5.424;2023-04-29T04:16:14;101857.06;;;9.96;94.43
77662;BME280;69666;52.136;5.424;2023-04-29T04:18:41;101858.88;;;9.94;94.45
77662;BME280;69666;52.136;5.424;2023-04-29T04:21:09;101865.09;;;9.93;94.23
77662;BME280;69666;52.136;5.424;2023-04-29T04:23:37;101860.69;;;9.92;93.70
77662;BME280;69666;52.136;5.424;2023-04-29T04:26:07;101866.03;;;9.91;94.99
77662;BME280;69666;52.136;5.424;2023-04-29T04:28:33;101871.34;;;9.89;93.67
77662;BME280;69666;52.136;5.424;2023-04-29T04:31:00;101868.69;;;9.91;94.21
77662;BME280;69666;52.136;5.424;2023-04-29T04:33:26;101861.59;;;9.89;93.73
77662;BME280;69666;52.136;5.424;2023-04-29T04:35:53;101864.25;;;9.89;93.53
77662;BME280;69666;52.136;5.424;2023-04-29T04:38:20;101873.13;;;9.90;93.42
77662;BME280;69666;52.136;5.424;2023-04-29T04:40:48;101874.00;;;9.91;93.75
77662;BME280;69666;52.136;5.424;2023-04-29T04:43:15;101878.41;;;9.92;95.09
77662;BME280;69666;52.136;5.424;2023-04-29T04:45:41;101878.44;;;9.90;94.40
77662;BME280;69666;52.136;5.424;2023-04-29T04:48:08;101881.06;;;9.92;94.44
77662;BME280;69666;52.136;5.424;2023-04-29T04:50:35;101896.13;;;9.93;94.80
77662;BME280;69666;52.136;5.424;2023-04-29T04:53:01;101895.22;;;9.94;94.52
77662;BME280;69666;52.136;5.424;2023-04-29T04:55:28;101901.41;;;9.94;94.06
77662;BME280;69666;52.136;5.424;2023-04-29T04:57:58;101912.88;;;9.96;94.08
77662;BME280;69666;52.136;5.424;2023-04-29T05:00:24;101906.75;;;9.94;94.57
77662;BME280;69666;52.136;5.424;2023-04-29T05:02:51;101912.00;;;9.96;95.27
77662;BME280;69666;52.136;5.424;2023-04-29T05:05:18;101912.88;;;9.98;95.46
77662;BME280;69666;52.136;5.424;2023-04-29T05:07:44;101910.19;;;9.99;94.95
77662;BME280;69666;52.136;5.424;2023-04-29T05:10:11;101911.94;;;10.02;94.66
77662;BME280;69666;52.136;5.424;2023-04-29T05:12:37;101923.41;;;10.05;95.06
77662;BME280;69666;52.136;5.424;2023-04-29T05:15:04;101920.75;;;10.05;95.27
77662;BME280;69666;52.136;5.424;2023-04-29T05:17:32;101934.88;;;10.09;94.67
77662;BME280;69666;52.136;5.424;2023-04-29T05:20:00;101928.66;;;10.10;95.08
77662;BME280;69666;52.136;5.424;2023-04-29T05:22:27;101928.59;;;10.14;95.28
77662;BME280;69666;52.136;5.424;2023-04-29T05:24:53;101932.97;;;10.18;94.70
77662;BME280;69666;52.136;5.424;2023-04-29T05:27:25;101936.50;;;10.20;94.83
77662;BME280;69666;52.136;5.424;2023-04-29T05:29:52;101935.59;;;10.23;94.53
77662;BME280;69666;52.136;5.424;2023-04-29T05:32:19;101941.75;;;10.27;94.94
77662;BME280;69666;52.136;5.424;2023-04-29T05:34:45;101939.03;;;10.28;95.29
77662;BME280;69666;52.136;5.424;2023-04-29T05:37:12;101947.88;;;10.32;94.93
77662;BME280;69666;52.136;5.424;2023-04-29T05:39:38;101948.72;;;10.34;95.01
77662;BME280;69666;52.136;5.424;2023-04-29T05:42:05;101952.28;;;10.34;94.42
77662;BME280;69666;52.136;5.424;2023-04-29T05:44:32;101955.78;;;10.38;95.03
77662;BME280;69666;52.136;5.424;2023-04-29T05:46:59;101959.19;;;10.46;95.44
77662;BME280;69666;52.136;5.424;2023-04-29T05:49:25;101956.47;;;10.49;94.77
77662;BME280;69666;52.136;5.424;2023-04-29T05:51:52;101954.63;;;10.52;95.03
77662;BME280;69666;52.136;5.424;2023-04-29T05:54:19;101956.31;;;10.59;94.70
77662;BME280;69666;52.136;5.424;2023-04-29T05:56:45;101963.28;;;10.67;94.77
77662;BME280;69666;52.136;5.424;2023-04-29T05:59:12;101964.06;;;10.73;93.98
77662;BME280;69666;52.136;5.424;2023-04-29T06:01:38;101971.97;;;10.78;94.88
77662;BME280;69666;52.136;5.424;2023-04-29T06:04:05;101967.41;;;10.84;94.21
77662;BME280;69666;52.136;5.424;2023-04-29T06:06:32;101973.53;;;10.91;93.77
77662;BME280;69666;52.136;5.424;2023-04-29T06:09:00;101979.63;;;10.96;94.07
77662;BME280;69666;52.136;5.424;2023-04-29T06:11:26;101980.47;;;11.01;93.87
77662;BME280;69666;52.136;5.424;2023-04-29T06:13:53;101985.72;;;11.04;93.89
77662;BME280;69666;52.136;5.424;2023-04-29T06:16:19;101987.41;;;11.08;93.71
77662;BME280;69666;52.136;5.424;2023-04-29T06:18:46;101994.38;;;11.17;93.30
77662;BME280;69666;52.136;5.424;2023-04-29T06:21:13;101986.28;;;11.23;94.20
77662;BME280;69666;52.136;5.424;2023-04-29T06:23:41;101997.69;;;11.29;93.23
77662;BME280;69666;52.136;5.424;2023-04-29T06:26:07;101998.53;;;11.33;93.21
77662;BME280;69666;52.136;5.424;2023-04-29T06:28:34;102000.19;;;11.39;93.28
77662;BME280;69666;52.136;5.424;2023-04-29T06:31:00;102005.47;;;11.40;92.97
77662;BME280;69666;52.136;5.424;2023-04-29T06:33:27;102006.31;;;11.44;92.48
77662;BME280;69666;52.136;5.424;2023-04-29T06:35:55;102003.69;;;11.42;92.03
77662;BME280;69666;52.136;5.424;2023-04-29T06:38:22;102013.41;;;11.45;91.98
77662;BME280;69666;52.136;5.424;2023-04-29T06:40:49;102011.47;;;11.53;92.14
77662;BME280;69666;52.136;5.424;2023-04-29T06:43:15;102020.25;;;11.58;91.85
77662;BME280;69666;52.136;5.424;2023-04-29T06:45:45;102022.84;;;11.62;92.03
77662;BME280;69666;52.136;5.424;2023-04-29T06:48:12;102036.91;;;11.69;90.63
77662;BME280;69666;52.136;5.424;2023-04-29T06:50:48;102043.94;;;11.73;90.44
77662;BME280;69666;52.136;5.424;2023-04-29T06:53:14;102051.91;;;11.78;91.25
77662;BME280;69666;52.136;5.424;2023-04-29T06:55:41;102044.69;;;11.83;90.92
77662;BME280;69666;52.136;5.424;2023-04-29T06:58:07;102049.72;;;11.98;91.27
77662;BME280;69666;52.136;5.424;2023-04-29T07:00:34;102048.66;;;12.06;90.13
77662;BME280;69666;52.136;5.424;2023-04-29T07:03:01;102050.25;;;12.14;90.70
77662;BME280;69666;52.136;5.424;2023-04-29T07:05:28;102056.34;;;12.22;90.15
77662;BME280;69666;52.136;5.424;2023-04-29T07:07:54;102052.25;;;12.44;89.38
77662;BME280;69666;52.136;5.424;2023-04-29T07:10:21;102054.84;;;12.49;87.39
77662;BME280;69666;52.136;5.424;2023-04-29T07:12:47;102061.06;;;12.49;87.51
77662;BME280;69666;52.136;5.424;2023-04-29T07:15:14;102070.16;;;12.40;86.43
77662;BME280;69666;52.136;5.424;2023-04-29T07:17:41;102071.91;;;12.41;86.82
77662;BME280;69666;52.136;5.424;2023-04-29T07:20:08;102075.38;;;12.45;86.62
77662;BME280;69666;52.136;5.424;2023-04-29T07:22:34;102071.50;;;12.60;87.54
77662;BME280;69666;52.136;5.424;2023-04-29T07:25:01;102080.53;;;12.93;87.67
77662;BME280;69666;52.136;5.424;2023-04-29T07:27:28;102075.75;;;13.07;86.10
77662;BME280;69666;52.136;5.424;2023-04-29T07:29:54;102078.25;;;13.14;85.30
77662;BME280;69666;52.136;5.424;2023-04-29T07:32:22;102076.47;;;13.13;84.98
77662;BME280;69666;52.136;5.424;2023-04-29T07:34:48;102086.41;;;13.08;84.66
77662;BME280;69666;52.136;5.424;2023-04-29T07:37:15;102094.47;;;13.05;85.19
77662;BME280;69666;52.136;5.424;2023-04-29T07:39:42;102085.63;;;13.03;85.55
77662;BME280;69666;52.136;5.424;2023-04-29T07:42:08;102085.84;;;12.94;84.11
77662;BME280;69666;52.136;5.424;2023-04-29T07:44:35;102092.91;;;12.97;84.50
77662;BME280;69666;52.136;5.424;2023-04-29T07:47:01;102103.34;;;13.07;84.83
77662;BME280;69666;52.136;5.424;2023-04-29T07:49:28;102100.22;;;13.27;85.00
77662;BME280;69666;52.136;5.424;2023-04-29T07:51:55;102105.19;;;13.75;84.99
77662;BME280;69666;52.136;5.424;2023-04-29T07:54:21;102098.59;;;14.19;82.53
77662;BME280;69666;52.136;5.424;2023-04-29T07:56:49;102108.31;;;14.54;81.59
77662;BME280;69666;52.136;5.424;2023-04-29T07:59:15;102108.03;;;14.92;77.89
77662;BME280;69666;52.136;5.424;2023-04-29T08:01:42;102108.59;;;15.30;81.91
77662;BME280;69666;52.136;5.424;2023-04-29T08:04:09;102106.75;;;15.58;75.62
77662;BME280;69666;52.136;5.424;2023-04-29T08:06:36;102115.78;;;15.81;77.61
77662;BME280;69666;52.136;5.424;2023-04-29T08:09:03;102117.22;;;16.16;78.78
77662;BME280;69666;52.136;5.424;2023-04-29T08:11:29;102106.56;;;16.37;75.81
77662;BME280;69666;52.136;5.424;2023-04-29T08:13:56;102107.28;;;16.66;75.37
77662;BME280;69666;52.136;5.424;2023-04-29T08:16:25;102117.06;;;17.12;77.34
77662;BME280;69666;52.136;5.424;2023-04-29T08:18:52;102120.81;;;17.51;77.77
77662;BME280;69666;52.136;5.424;2023-04-29T08:21:19;102126.69;;;17.61;74.67
77662;BME280;69666;52.136;5.424;2023-04-29T08:23:46;102125.75;;;17.62;73.00
77662;BME280;69666;52.136;5.424;2023-04-29T08:26:12;102126.66;;;17.41;71.11
77662;BME280;69666;52.136;5.424;2023-04-29T08:28:39;102128.66;;;17.14;71.32
77662;BME280;69666;52.136;5.424;2023-04-29T08:31:06;102127.00;;;16.88;72.71
77662;BME280;69666;52.136;5.424;2023-04-29T08:33:33;102128.16;;;16.58;71.14
77662;BME280;69666;52.136;5.424;2023-04-29T08:36:00;102134.00;;;16.22;70.55
77662;BME280;69666;52.136;5.424;2023-04-29T08:38:29;102127.00;;;16.41;72.68
77662;BME280;69666;52.136;5.424;2023-04-29T08:40:57;102126.53;;;16.77;72.45
77662;BME280;69666;52.136;5.424;2023-04-29T08:43:25;102120.47;;;17.17;73.14
77662;BME280;69666;52.136;5.424;2023-04-29T08:45:52;102126.44;;;17.45;72.85
77662;BME280;69666;52.136;5.424;2023-04-29T08:48:20;102127.75;;;17.57;71.60
77662;BME280;69666;52.136;5.424;2023-04-29T08:50:47;102131.84;;;17.67;70.50
77662;BME280;69666;52.136;5.424;2023-04-29T08:53:14;102135.06;;;17.53;68.60
77662;BME280;69666;52.136;5.424;2023-04-29T08:55:45;102137.72;;;17.33;69.24
77662;BME280;69666;52.136;5.424;2023-04-29T08:58:14;102144.19;;;17.07;69.25
77662;BME280;69666;52.136;5.424;2023-04-29T09:00:43;102142.63;;;16.78;69.48
77662;BME280;69666;52.136;5.424;2023-04-29T09:03:24;102148.66;;;16.62;69.60
77662;BME280;69666;52.136;5.424;2023-04-29T09:05:53;102150.75;;;16.29;69.76
77662;BME280;69666;52.136;5.424;2023-04-29T09:08:22;102157.41;;;16.19;70.69
77662;BME280;69666;52.136;5.424;2023-04-29T09:10:53;102141.56;;;16.59;72.98
77662;BME280;69666;52.136;5.424;2023-04-29T09:13:30;102149.28;;;16.68;69.10
77662;BME280;69666;52.136;5.424;2023-04-29T09:15:57;102158.28;;;16.67;70.72
77662;BME280;69666;52.136;5.424;2023-04-29T09:23:39;102156.69;;;17.08;68.75
77662;BME280;69666;52.136;5.424;2023-04-29T09:26:06;102160.13;;;17.34;69.06
77662;BME280;69666;52.136;5.424;2023-04-29T09:28:33;102156.00;;;17.69;68.97
77662;BME280;69666;52.136;5.424;2023-04-29T09:31:03;102163.56;;;18.01;68.01
77662;BME280;69666;52.136;5.424;2023-04-29T09:33:49;102172.06;;;18.12;68.08
77662;BME280;69666;52.136;5.424;2023-04-29T09:36:45;102170.84;;;17.99;68.32
77662;BME280;69666;52.136;5.424;2023-04-29T09:39:20;102163.28;;;18.07;66.36
77662;BME280;69666;52.136;5.424;2023-04-29T09:44:23;102171.28;;;18.49;69.42
77662;BME280;69666;52.136;5.424;2023-04-29T09:47:04;102178.81;;;18.82;67.36
77662;BME280;69666;52.136;5.424;2023-04-29T09:49:34;102177.50;;;18.90;66.63
77662;BME280;69666;52.136;5.424;2023-04-29T09:52:04;102166.91;;;19.23;67.32
77662;BME280;69666;52.136;5.424;2023-04-29T09:54:32;102177.03;;;19.18;64.17
77662;BME280;69666;52.136;5.424;2023-04-29T09:57:00;102182.44;;;19.00;62.37
77662;BME280;69666;52.136;5.424;2023-04-29T09:59:27;102185.19;;;19.17;66.46
77662;BME280;69666;52.136;5.424;2023-04-29T10:01:56;102186.13;;;19.53;65.62
77662;BME280;69666;52.136;5.424;2023-04-29T10:04:24;102181.00;;;19.83;65.43
77662;BME280;69666;52.136;5.424;2023-04-29T10:06:54;102178.66;;;20.12;63.95
77662;BME280;69666;52.136;5.424;2023-04-29T10:09:22;102179.50;;;20.29;61.95
77662;BME280;69666;52.136;5.424;2023-04-29T10:11:51;102175.22;;;20.43;62.16
77662;BME280;69666;52.136;5.424;2023-04-29T10:14:23;102180.50;;;20.77;63.13
77662;BME280;69666;52.136;5.424;2023-04-29T10:17:15;102179.41;;;20.48;60.53
77662;BME280;69666;52.136;5.424;2023-04-29T10:19:51;102186.63;;;20.13;60.56
77662;BME280;69666;52.136;5.424;2023-04-29T10:22:31;102183.53;;;19.69;61.95
77662;BME280;69666;52.136;5.424;2023-04-29T10:25:00;102186.66;;;19.79;60.08
77662;BME280;69666;52.136;5.424;2023-04-29T10:27:31;102176.41;;;20.02;63.21
77662;BME280;69666;52.136;5.424;2023-04-29T10:30:00;102184.06;;;20.12;61.91
77662;BME280;69666;52.136;5.424;2023-04-29T10:32:27;102181.88;;;20.35;61.99
77662;BME280;69666;52.136;5.424;2023-04-29T10:35:10;102181.38;;;20.45;59.60
77662;BME280;69666;52.136;5.424;2023-04-29T10:37:38;102191.34;;;20.27;59.85
77662;BME280;69666;52.136;5.424;2023-04-29T10:40:17;102188.31;;;19.81;57.64
77662;BME280;69666;52.136;5.424;2023-04-29T10:42:51;102193.88;;;19.42;58.54
77662;BME280;69666;52.136;5.424;2023-04-29T10:53:03;102191.38;;;19.38;57.85
77662;BME280;69666;52.136;5.424;2023-04-29T10:55:31;102195.69;;;19.42;59.67
77662;BME280;69666;52.136;5.424;2023-04-29T10:58:02;102189.56;;;19.38;61.86
77662;BME280;69666;52.136;5.424;2023-04-29T11:00:32;102188.47;;;19.42;61.52
77662;BME280;69666;52.136;5.424;2023-04-29T11:03:01;102186.13;;;19.53;61.86
77662;BME280;69666;52.136;5.424;2023-04-29T11:05:35;102183.28;;;19.38;61.58
77662;BME280;69666;52.136;5.424;2023-04-29T11:08:13;102186.50;;;19.27;59.56
77662;BME280;69666;52.136;5.424;2023-04-29T11:10:42;102188.44;;;19.25;61.34
77662;BME280;69666;52.136;5.424;2023-04-29T11:13:27;102194.38;;;18.94;60.25
77662;BME280;69666;52.136;5.424;2023-04-29T11:18:32;102191.53;;;19.35;63.29
77662;BME280;69666;52.136;5.424;2023-04-29T11:23:36;102199.72;;;18.95;58.15
77662;BME280;69666;52.136;5.424;2023-04-29T11:26:04;102195.06;;;18.99;58.84
77662;BME280;69666;52.136;5.424;2023-04-29T11:28:31;102188.28;;;19.09;58.66
77662;BME280;69666;52.136;5.424;2023-04-29T11:30:59;102190.75;;;19.14;57.88
77662;BME280;69666;52.136;5.424;2023-04-29T11:33:27;102184.84;;;19.06;58.34
77662;BME280;69666;52.136;5.424;2023-04-29T11:35:54;102198.63;;;19.00;59.83
77662;BME280;69666;52.136;5.424;2023-04-29T11:38:28;102192.22;;;19.02;62.02
77662;BME280;69666;52.136;5.424;2023-04-29T11:40:58;102196.34;;;19.28;60.43
77662;BME280;69666;52.136;5.424;2023-04-29T11:43:25;102199.63;;;19.53;63.71
77662;BME280;69666;52.136;5.424;2023-04-29T11:45:52;102199.03;;;19.65;56.96
77662;BME280;69666;52.136;5.424;2023-04-29T11:48:28;102188.72;;;19.91;61.84
77662;BME280;69666;52.136;5.424;2023-04-29T11:50:58;102201.84;;;19.98;59.67
77662;BME280;69666;52.136;5.424;2023-04-29T11:53:25;102189.03;;;20.02;59.78
77662;BME280;69666;52.136;5.424;2023-04-29T11:55:55;102186.66;;;19.96;60.70
77662;BME280;69666;52.136;5.424;2023-04-29T11:58:22;102189.75;;;20.05;57.66
77662;BME280;69666;52.136;5.424;2023-04-29T12:00:50;102198.84;;;19.68;56.80
77662;BME280;69666;52.136;5.424;2023-04-29T12:03:19;102196.59;;;19.95;59.76
77662;BME280;69666;52.136;5.424;2023-04-29T12:05:54;102197.63;;;19.93;56.51
77662;BME280;69666;52.136;5.424;2023-04-29T12:08:22;102199.63;;;20.07;58.45
77662;BME280;69666;52.136;5.424;2023-04-29T12:10:51;102198.34;;;19.96;59.21
77662;BME280;69666;52.136;5.424;2023-04-29T12:13:19;102202.78;;;19.80;57.10
77662;BME280;69666;52.136;5.424;2023-04-29T12:15:49;102198.97;;;19.67;58.13
77662;BME280;69666;52.136;5.424;2023-04-29T12:18:18;102200.13;;;19.61;58.28
77662;BME280;69666;52.136;5.424;2023-04-29T12:20:45;102194.97;;;19.57;55.03
77662;BME280;69666;52.136;5.424;2023-04-29T12:23:18;102188.84;;;19.35;56.13
77662;BME280;69666;52.136;5.424;2023-04-29T12:25:56;102188.13;;;19.31;59.02
77662;BME280;69666;52.136;5.424;2023-04-29T12:28:25;102191.75;;;19.49;61.18
77662;BME280;69666;52.136;5.424;2023-04-29T12:30:53;102190.94;;;19.47;59.43
77662;BME280;69666;52.136;5.424;2023-04-29T12:33:24;102194.47;;;19.30;58.46
77662;BME280;69666;52.136;5.424;2023-04-29T12:35:55;102189.00;;;19.31;58.55
77662;BME280;69666;52.136;5.424;2023-04-29T12:38:41;102185.69;;;19.44;61.37
77662;BME280;69666;52.136;5.424;2023-04-29T12:41:08;102191.44;;;19.36;60.08
77662;BME280;69666;52.136;5.424;2023-04-29T12:43:34;102200.88;;;19.27;60.44
77662;BME280;69666;52.136;5.424;2023-04-29T12:46:06;102201.84;;;19.08;59.42
77662;BME280;69666;52.136;5.424;2023-04-29T12:48:35;102196.31;;;19.11;58.95
77662;BME280;69666;52.136;5.424;2023-04-29T12:51:09;102199.81;;;19.13;60.30
77662;BME280;69666;52.136;5.424;2023-04-29T12:53:37;102199.22;;;19.06;62.03
77662;BME280;69666;52.136;5.424;2023-04-29T12:56:05;102200.59;;;19.15;61.34
77662;BME280;69666;52.136;5.424;2023-04-29T12:58:32;102205.47;;;19.07;59.04
77662;BME280;69666;52.136;5.424;2023-04-29T13:01:02;102204.47;;;18.90;58.31
77662;BME280;69666;52.136;5.424;2023-04-29T13:03:28;102201.09;;;18.67;56.58
77662;BME280;69666;52.136;5.424;2023-04-29T13:05:55;102202.78;;;18.69;59.41
77662;BME280;69666;52.136;5.424;2023-04-29T13:08:22;102200.66;;;18.76;60.86
77662;BME280;69666;52.136;5.424;2023-04-29T13:10:49;102201.66;;;18.73;58.83
77662;BME280;69666;52.136;5.424;2023-04-29T13:13:16;102211.44;;;18.76;57.76
77662;BME280;69666;52.136;5.424;2023-04-29T13:15:42;102210.50;;;18.77;60.75
77662;BME280;69666;52.136;5.424;2023-04-29T13:18:09;102212.91;;;18.83;60.82
77662;BME280;69666;52.136;5.424;2023-04-29T13:20:36;102208.19;;;18.88;59.25
77662;BME280;69666;52.136;5.424;2023-04-29T13:23:08;102212.56;;;18.90;59.98
77662;BME280;69666;52.136;5.424;2023-04-29T13:25:35;102207.69;;;18.99;59.51
77662;BME280;69666;52.136;5.424;2023-04-29T13:28:01;102198.47;;;18.84;57.74
77662;BME280;69666;52.136;5.424;2023-04-29T13:30:28;102213.44;;;18.91;60.26
77662;BME280;69666;52.136;5.424;2023-04-29T13:32:54;102214.38;;;18.90;59.08